Time;durP1;ratioP1;P1;durP2;ratioP2;P2;SDS_P1;SDS_P2;PMS_P1;PMS_P2;Temp;Humidity;BMP_temperature;BMP_pressure;BME280_temperature;BME280_humidity;BME280_pressure;Samples;Min_cycle;Max_cycle;Signal;HPM_P1;HPM_P2
2022/06/01 00:00:57;;;;;;;8.33;6.53;;;10.70;99.90;;;;;;5033047;28;20822;-61
2022/06/01 00:03:24;;;;;;;6.97;6.37;;;10.70;99.90;;;;;;5032511;28;20469;-60
2022/06/01 00:05:54;;;;;;;8.00;6.77;;;10.60;99.90;;;;;;5032957;28;20475;-60
2022/06/01 00:08:21;;;;;;;7.67;6.87;;;10.60;99.90;;;;;;5032765;28;20550;-61
2022/06/01 00:10:48;;;;;;;7.17;6.53;;;10.60;99.90;;;;;;5033074;28;20451;-59
2022/06/01 00:13:15;;;;;;;9.27;7.50;;;10.60;99.90;;;;;;5032859;28;20472;-61
2022/06/01 00:15:43;;;;;;;7.15;6.45;;;10.60;99.90;;;;;;5032379;28;20494;-60
2022/06/01 00:18:10;;;;;;;8.43;7.30;;;10.50;99.90;;;;;;5032683;28;20210;-61
2022/06/01 00:20:38;;;;;;;8.27;7.10;;;10.60;99.90;;;;;;5032448;28;20452;-61
2022/06/01 00:23:07;;;;;;;8.23;6.82;;;10.50;99.90;;;;;;5032837;28;20449;-61
2022/06/01 00:25:34;;;;;;;6.85;6.13;;;10.50;99.90;;;;;;5048611;28;20231;-60
2022/06/01 00:28:02;;;;;;;7.40;6.07;;;10.50;99.90;;;;;;5051209;28;20672;-60
2022/06/01 00:30:29;;;;;;;10.03;5.87;;;10.50;99.90;;;;;;5051103;28;20447;-62
2022/06/01 00:32:56;;;;;;;7.90;6.20;;;10.50;99.90;;;;;;5051949;28;20444;-61
2022/06/01 00:35:25;;;;;;;7.50;6.70;;;10.50;99.90;;;;;;5052217;28;20502;-61
2022/06/01 00:37:52;;;;;;;6.73;5.83;;;10.50;99.90;;;;;;5047225;28;20206;-61
2022/06/01 00:40:23;;;;;;;6.95;6.13;;;10.50;99.90;;;;;;5045870;28;20444;-60
2022/06/01 00:42:53;;;;;;;7.03;6.23;;;10.50;99.90;;;;;;5045930;28;20193;-62
2022/06/01 00:45:24;;;;;;;6.40;5.80;;;10.50;99.90;;;;;;5044791;28;20437;-60
2022/06/01 00:47:52;;;;;;;7.53;6.50;;;10.50;99.90;;;;;;5044729;28;20432;-58
2022/06/01 00:50:23;;;;;;;6.83;6.23;;;10.50;99.90;;;;;;5043448;28;20459;-60
2022/06/01 00:52:55;;;;;;;8.40;6.10;;;10.60;99.90;;;;;;5043844;28;20429;-60
2022/06/01 00:55:28;;;;;;;6.90;6.03;;;10.60;99.90;;;;;;5041040;28;20485;-60
2022/06/01 00:57:59;;;;;;;7.35;5.82;;;10.60;99.90;;;;;;5037640;28;20436;-60
2022/06/01 01:00:32;;;;;;;6.50;5.80;;;10.60;99.90;;;;;;5036138;28;20186;-61
2022/06/01 01:03:02;;;;;;;5.97;5.47;;;10.70;99.90;;;;;;5036251;28;20686;-60
2022/06/01 01:05:32;;;;;;;7.13;6.13;;;10.70;99.90;;;;;;5035930;28;20449;-60
2022/06/01 01:08:03;;;;;;;6.20;5.60;;;10.70;99.90;;;;;;5036016;28;20435;-62
2022/06/01 01:10:32;;;;;;;6.63;5.67;;;10.70;99.90;;;;;;5035615;28;20433;-60
2022/06/01 01:13:01;;;;;;;6.20;5.65;;;10.70;99.90;;;;;;5035321;28;20949;-62
2022/06/01 01:15:32;;;;;;;6.87;6.27;;;10.70;99.90;;;;;;5035898;28;20602;-60
2022/06/01 01:18:00;;;;;;;5.73;5.27;;;10.70;99.90;;;;;;5035522;28;20428;-60
2022/06/01 01:20:29;;;;;;;6.60;5.93;;;10.70;99.90;;;;;;5035421;28;20833;-60
2022/06/01 01:23:08;;;;;;;5.87;5.37;;;10.70;99.90;;;;;;5035724;28;20475;-62
2022/06/01 01:25:39;;;;;;;6.63;5.47;;;10.70;99.90;;;;;;5035835;28;20432;-60
2022/06/01 01:28:08;;;;;;;6.43;5.40;;;10.70;99.90;;;;;;5035565;28;20467;-60
2022/06/01 01:30:45;;;;;;;6.70;5.00;;;10.70;99.90;;;;;;5035249;28;20205;-60
2022/06/01 01:33:15;;;;;;;6.18;5.68;;;10.70;99.90;;;;;;5035074;28;20440;-60
2022/06/01 01:35:43;;;;;;;6.27;5.67;;;10.70;99.90;;;;;;5034928;28;20253;-60
2022/06/01 01:38:15;;;;;;;6.20;5.60;;;10.70;99.90;;;;;;5034313;28;20951;-60
2022/06/01 01:40:43;;;;;;;5.40;4.90;;;10.70;99.90;;;;;;5035224;28;20826;-60
2022/06/01 01:43:11;;;;;;;5.87;5.37;;;10.70;99.90;;;;;;5035414;28;20457;-61
2022/06/01 01:45:39;;;;;;;6.23;5.60;;;10.80;99.90;;;;;;5035869;28;20523;-60
2022/06/01 01:48:06;;;;;;;5.60;5.10;;;10.80;99.90;;;;;;5034928;28;20447;-60
2022/06/01 01:50:33;;;;;;;6.03;5.28;;;10.80;99.90;;;;;;5034963;28;20460;-60
2022/06/01 01:53:01;;;;;;;6.03;5.40;;;10.80;99.90;;;;;;5035459;28;20203;-61
2022/06/01 01:55:39;;;;;;;5.63;5.10;;;10.80;99.90;;;;;;5035190;28;20487;-60
2022/06/01 01:58:14;;;;;;;6.63;5.13;;;10.80;99.90;;;;;;5035388;28;20924;-60
2022/06/01 02:00:47;;;;;;;5.70;4.93;;;10.80;99.90;;;;;;5035424;28;20432;-61
2022/06/01 02:03:19;;;;;;;5.80;5.23;;;10.80;99.90;;;;;;5035199;28;20527;-60
2022/06/01 02:06:08;;;;;;;5.43;4.93;;;10.80;99.90;;;;;;5035260;28;20429;-59
2022/06/01 02:08:41;;;;;;;5.50;5.00;;;10.90;99.90;;;;;;5035119;28;20510;-60
2022/06/01 02:14:06;;;;;;;5.43;4.80;;;10.90;99.90;;;;;;5034952;28;20530;-60
2022/06/01 02:16:37;;;;;;;5.93;5.33;;;10.90;99.90;;;;;;5035074;28;20424;-60
2022/06/01 02:19:11;;;;;;;5.47;5.00;;;10.90;99.90;;;;;;5035098;28;20433;-60
2022/06/01 02:21:39;;;;;;;6.13;5.53;;;10.90;99.90;;;;;;5034897;28;20428;-60
2022/06/01 02:24:07;;;;;;;7.00;4.87;;;10.90;99.90;;;;;;5034925;28;20496;-60
2022/06/01 02:26:34;;;;;;;5.63;5.13;;;10.90;99.90;;;;;;5034274;28;20939;-60
2022/06/01 02:29:08;;;;;;;5.53;5.03;;;10.90;99.90;;;;;;5034400;28;20456;-61
2022/06/01 02:31:37;;;;;;;6.13;5.50;;;10.90;99.90;;;;;;5034548;28;20846;-60
2022/06/01 02:34:07;;;;;;;6.07;5.50;;;10.90;99.90;;;;;;5034525;28;20877;-61
2022/06/01 02:36:34;;;;;;;6.43;5.27;;;10.90;99.90;;;;;;5034766;28;20445;-60
2022/06/01 02:39:04;;;;;;;6.50;5.10;;;10.90;99.90;;;;;;5034691;28;20495;-60
2022/06/01 02:44:18;;;;;;;5.80;5.30;;;10.90;99.90;;;;;;5033919;28;20825;-60
2022/06/01 02:46:46;;;;;;;5.33;4.83;;;10.80;99.90;;;;;;5033801;28;20441;-60
2022/06/01 02:49:13;;;;;;;5.37;4.87;;;10.80;99.90;;;;;;5032629;28;20455;-60
2022/06/01 02:51:40;;;;;;;5.50;4.80;;;10.80;99.90;;;;;;5033877;28;20437;-60
2022/06/01 02:54:08;;;;;;;6.40;5.43;;;10.80;99.90;;;;;;5033732;28;20476;-60
2022/06/01 02:56:35;;;;;;;5.93;5.33;;;10.90;99.90;;;;;;5033716;28;20484;-61
2022/06/01 02:59:02;;;;;;;8.00;5.37;;;10.90;99.90;;;;;;5033761;28;20457;-60
2022/06/01 03:01:31;;;;;;;5.90;5.33;;;10.90;99.90;;;;;;5034183;28;20472;-61
2022/06/01 03:03:58;;;;;;;6.37;5.77;;;10.90;99.90;;;;;;5033533;28;20555;-60
2022/06/01 03:06:25;;;;;;;6.50;5.90;;;11.00;99.90;;;;;;5033578;28;20507;-60
2022/06/01 03:08:53;;;;;;;6.90;5.83;;;11.00;99.90;;;;;;5033495;28;20449;-60
2022/06/01 03:11:20;;;;;;;5.73;5.13;;;11.00;99.90;;;;;;5033381;28;20452;-60
2022/06/01 03:13:47;;;;;;;6.60;6.00;;;11.00;99.90;;;;;;5033579;28;20478;-60
2022/06/01 03:16:14;;;;;;;6.67;5.97;;;11.00;99.90;;;;;;5033391;28;20473;-61
2022/06/01 03:18:42;;;;;;;7.03;6.33;;;11.10;99.90;;;;;;5033995;28;20444;-60
2022/06/01 03:21:09;;;;;;;6.00;5.40;;;11.10;99.90;;;;;;5033319;28;20834;-60
2022/06/01 03:23:38;;;;;;;5.90;5.30;;;11.10;99.90;;;;;;5033329;28;20479;-60
2022/06/01 03:26:05;;;;;;;6.17;5.67;;;11.10;99.90;;;;;;5033144;28;20445;-60
2022/06/01 03:28:33;;;;;;;7.20;5.33;;;11.10;99.90;;;;;;5032989;28;20452;-60
2022/06/01 03:31:01;;;;;;;6.13;5.40;;;11.10;99.90;;;;;;5033610;28;20815;-60
2022/06/01 03:33:28;;;;;;;5.70;5.10;;;11.10;99.90;;;;;;5033330;28;20587;-60
2022/06/01 03:35:56;;;;;;;7.33;5.57;;;11.10;99.90;;;;;;5032977;28;20477;-60
2022/06/01 03:38:23;;;;;;;5.73;5.23;;;11.00;99.90;;;;;;5032970;28;20449;-61
2022/06/01 03:40:50;;;;;;;6.90;6.20;;;11.00;99.90;;;;;;5032835;28;20449;-60
2022/06/01 03:43:19;;;;;;;7.00;6.30;;;11.10;99.90;;;;;;5032756;28;20557;-61
2022/06/01 03:45:59;;;;;;;9.50;5.90;;;11.10;99.90;;;;;;5033282;28;20539;-60
2022/06/01 03:48:29;;;;;;;5.73;5.17;;;11.10;99.90;;;;;;5032999;28;20440;-60
2022/06/01 03:50:57;;;;;;;6.20;5.37;;;11.20;99.90;;;;;;5033548;28;20561;-61
2022/06/01 03:53:25;;;;;;;6.50;5.63;;;11.20;99.90;;;;;;5032677;28;20511;-60
2022/06/01 03:55:53;;;;;;;6.37;5.87;;;11.20;99.90;;;;;;5033012;28;20508;-60
2022/06/01 03:58:23;;;;;;;6.83;5.50;;;11.30;99.90;;;;;;5032640;28;20968;-60
2022/06/01 04:00:50;;;;;;;7.07;6.07;;;11.30;99.90;;;;;;5032335;28;20456;-59
2022/06/01 04:03:18;;;;;;;6.43;5.83;;;11.40;99.90;;;;;;5033233;28;20468;-60
2022/06/01 04:05:45;;;;;;;7.03;6.00;;;11.40;99.90;;;;;;5032455;28;20964;-60
2022/06/01 04:09:52;;;;;;;6.10;5.50;;;11.50;99.90;;;;;;5090775;27;20853;-59
2022/06/01 04:12:19;;;;;;;7.53;5.87;;;11.50;99.90;;;;;;5090453;28;20970;-59
2022/06/01 04:14:46;;;;;;;6.77;6.10;;;11.50;99.90;;;;;;5090333;28;20995;-60
2022/06/01 04:17:13;;;;;;;6.70;6.00;;;11.50;99.90;;;;;;5090152;28;20520;-61
2022/06/01 04:19:40;;;;;;;9.00;6.47;;;11.60;99.90;;;;;;5090512;28;20438;-59
2022/06/01 04:22:09;;;;;;;6.63;6.00;;;11.70;99.90;;;;;;5086660;28;20471;-60
2022/06/01 04:24:37;;;;;;;7.53;6.17;;;11.70;99.90;;;;;;5076180;28;20490;-60
2022/06/01 04:27:06;;;;;;;6.47;5.87;;;11.80;99.90;;;;;;5086024;28;20465;-61
2022/06/01 04:29:33;;;;;;;6.63;6.00;;;11.90;99.90;;;;;;5069556;28;20560;-60
2022/06/01 04:32:04;;;;;;;6.30;5.53;;;12.00;99.90;;;;;;5069688;28;20470;-60
2022/06/01 04:34:31;;;;;;;13.20;6.00;;;12.00;99.90;;;;;;5081179;28;20483;-61
2022/06/01 04:36:58;;;;;;;6.20;5.60;;;12.10;99.90;;;;;;5075295;28;20960;-61
2022/06/01 04:39:26;;;;;;;6.00;5.50;;;12.20;99.90;;;;;;5076246;28;20832;-61
2022/06/01 04:41:53;;;;;;;8.23;5.20;;;12.30;99.90;;;;;;5071149;28;20901;-62
2022/06/01 04:44:22;;;;;;;6.17;5.57;;;12.40;99.90;;;;;;5078140;28;21022;-60
2022/06/01 04:46:49;;;;;;;5.83;5.33;;;12.50;99.90;;;;;;5089122;28;20468;-63
2022/06/01 04:49:16;;;;;;;6.43;5.77;;;12.50;99.90;;;;;;5079862;28;21000;-60
2022/06/01 04:51:43;;;;;;;7.00;6.40;;;12.60;99.90;;;;;;5076059;28;20477;-61
2022/06/01 04:54:10;;;;;;;6.77;6.13;;;12.70;99.90;;;;;;5069918;28;20477;-60
2022/06/01 04:56:37;;;;;;;8.40;5.20;;;12.80;99.90;;;;;;5073143;28;20475;-61
2022/06/01 04:59:04;;;;;;;4.87;4.47;;;12.90;99.90;;;;;;5082106;28;20446;-60
2022/06/01 05:01:33;;;;;;;6.57;5.87;;;13.00;99.90;;;;;;5072253;28;20468;-60
2022/06/01 05:04:00;;;;;;;6.10;5.37;;;13.10;99.90;;;;;;5072351;28;20494;-59
2022/06/01 05:06:27;;;;;;;7.30;6.33;;;13.20;99.90;;;;;;5086667;28;20446;-59
2022/06/01 05:08:54;;;;;;;5.63;5.20;;;13.20;99.90;;;;;;5085498;28;20927;-59
2022/06/01 05:11:22;;;;;;;6.37;5.50;;;13.30;99.90;;;;;;5069587;28;20519;-60
2022/06/01 05:13:49;;;;;;;6.50;5.70;;;13.30;99.90;;;;;;5069548;28;20469;-59
2022/06/01 05:16:17;;;;;;;5.87;5.37;;;13.30;99.90;;;;;;5069908;28;20451;-59
2022/06/01 05:18:46;;;;;;;5.30;4.90;;;13.30;99.80;;;;;;5069983;28;20459;-59
2022/06/01 05:21:13;;;;;;;6.03;5.43;;;13.40;99.50;;;;;;5070876;28;20439;-60
2022/06/01 05:23:41;;;;;;;5.70;4.90;;;13.70;99.40;;;;;;5094645;28;20495;-60
2022/06/01 05:26:08;;;;;;;7.00;5.60;;;14.30;98.90;;;;;;5087897;28;20436;-60
2022/06/01 05:28:35;;;;;;;5.10;4.50;;;15.10;97.20;;;;;;5075294;28;20498;-60
2022/06/01 05:31:06;;;;;;;7.70;5.00;;;15.80;94.60;;;;;;5073001;28;20464;-59
2022/06/01 05:33:34;;;;;;;6.70;5.10;;;16.40;92.00;;;;;;5072302;28;20492;-60
2022/06/01 05:36:04;;;;;;;4.60;4.20;;;16.70;89.80;;;;;;5072913;28;20444;-60
2022/06/01 05:38:31;;;;;;;5.20;4.70;;;16.80;86.20;;;;;;5068308;28;20494;-59
2022/06/01 05:40:58;;;;;;;6.27;5.67;;;16.60;83.40;;;;;;5069924;28;20448;-60
2022/06/01 05:43:26;;;;;;;4.67;4.27;;;16.40;80.90;;;;;;5072722;28;20464;-60
2022/06/01 05:45:53;;;;;;;4.70;4.30;;;16.20;79.50;;;;;;5070707;28;20879;-60
2022/06/01 05:48:22;;;;;;;6.50;5.90;;;15.90;78.30;;;;;;5065275;28;20504;-60
2022/06/01 05:50:49;;;;;;;6.17;5.60;;;15.70;78.10;;;;;;5065931;28;20443;-60
2022/06/01 05:53:18;;;;;;;7.50;5.93;;;15.60;78.50;;;;;;5066127;28;20461;-59
2022/06/01 05:55:45;;;;;;;9.23;5.90;;;15.70;78.40;;;;;;5067685;28;20456;-59
2022/06/01 05:58:14;;;;;;;6.30;5.60;;;15.90;77.70;;;;;;5076002;28;20895;-59
2022/06/01 06:00:42;;;;;;;7.90;6.40;;;16.10;75.80;;;;;;5093067;22;20475;-58
2022/06/01 06:03:09;;;;;;;6.47;5.63;;;16.20;73.10;;;;;;5054579;28;20447;-60
2022/06/01 06:08:23;;;;;;;6.50;5.97;;;16.00;72.10;;;;;;5053619;28;20518;-59
2022/06/01 06:10:50;;;;;;;6.33;5.67;;;16.00;72.20;;;;;;5054001;28;20468;-60
2022/06/01 06:13:18;;;;;;;6.57;5.90;;;16.00;71.10;;;;;;5054480;28;20444;-58
2022/06/01 06:15:45;;;;;;;8.07;7.37;;;15.90;71.30;;;;;;5054136;28;20444;-58
2022/06/01 06:18:13;;;;;;;7.60;6.90;;;15.80;70.80;;;;;;5054629;28;20471;-59
2022/06/01 06:20:41;;;;;;;6.60;5.90;;;15.80;71.30;;;;;;5054419;28;20448;-59
2022/06/01 06:23:09;;;;;;;8.23;7.27;;;15.80;70.80;;;;;;5052544;28;20464;-59
2022/06/01 06:25:38;;;;;;;7.40;6.70;;;15.80;70.60;;;;;;5052077;28;20464;-58
2022/06/01 06:28:05;;;;;;;7.40;6.33;;;15.70;70.10;;;;;;5053072;28;20456;-59
2022/06/01 06:30:33;;;;;;;8.43;7.63;;;15.60;70.00;;;;;;5032561;28;20457;-59
2022/06/01 06:33:00;;;;;;;9.33;8.47;;;15.50;70.40;;;;;;5033180;28;20449;-59
2022/06/01 06:35:27;;;;;;;8.73;7.93;;;15.40;70.40;;;;;;5050501;28;20953;-61
2022/06/01 06:37:54;;;;;;;8.63;7.70;;;15.40;70.70;;;;;;5053980;28;20830;-59
2022/06/01 06:40:21;;;;;;;9.43;8.03;;;15.50;70.50;;;;;;5053721;28;20951;-59
2022/06/01 06:42:50;;;;;;;9.83;9.03;;;15.60;70.00;;;;;;5053965;28;20465;-59
2022/06/01 06:45:17;;;;;;;9.97;8.97;;;15.70;68.70;;;;;;5053881;28;20455;-59
2022/06/01 06:47:44;;;;;;;11.23;9.43;;;15.70;68.50;;;;;;5053736;28;20557;-59
2022/06/01 06:50:13;;;;;;;9.20;8.30;;;15.80;67.60;;;;;;5051265;28;20961;-58
2022/06/01 06:52:40;;;;;;;9.60;8.70;;;15.90;66.40;;;;;;5053550;28;20841;-61
2022/06/01 06:55:09;;;;;;;10.30;9.30;;;16.00;66.20;;;;;;5053675;28;20870;-60
2022/06/01 06:57:36;;;;;;;9.17;8.27;;;16.10;65.30;;;;;;5053756;28;20507;-59
2022/06/01 07:00:08;;;;;;;8.53;7.83;;;16.00;64.90;;;;;;5053752;28;20816;-60
2022/06/01 07:02:35;;;;;;;8.10;7.03;;;15.90;65.40;;;;;;5053368;28;20476;-60
2022/06/01 07:05:02;;;;;;;9.00;8.20;;;15.90;65.60;;;;;;5053149;28;20440;-61
2022/06/01 07:07:29;;;;;;;8.00;7.30;;;16.10;65.60;;;;;;5053391;28;20866;-59
2022/06/01 07:09:56;;;;;;;8.40;7.60;;;16.20;65.10;;;;;;5049864;28;20488;-59
2022/06/01 07:12:24;;;;;;;7.20;6.30;;;16.30;64.80;;;;;;5029037;28;20478;-59
2022/06/01 07:14:53;;;;;;;7.43;6.73;;;16.40;64.50;;;;;;5051462;28;20468;-59
2022/06/01 07:17:21;;;;;;;7.40;6.80;;;16.60;63.30;;;;;;5053046;28;20821;-58
2022/06/01 07:19:48;;;;;;;7.70;7.00;;;16.70;62.60;;;;;;5032062;28;20548;-58
2022/06/01 07:22:15;;;;;;;9.40;8.40;;;16.80;61.90;;;;;;5031072;28;20489;-58
2022/06/01 07:24:43;;;;;;;8.07;7.30;;;16.70;61.80;;;;;;5029930;28;20506;-59
2022/06/01 07:27:10;;;;;;;9.40;7.80;;;16.60;62.30;;;;;;5030448;28;20288;-59
2022/06/01 07:29:37;;;;;;;8.60;7.90;;;16.50;63.30;;;;;;5032694;28;20489;-61
2022/06/01 07:32:05;;;;;;;9.17;8.37;;;16.40;63.10;;;;;;5032522;28;20476;-59
2022/06/01 07:34:33;;;;;;;8.80;8.10;;;16.30;63.10;;;;;;5032342;28;20453;-59
2022/06/01 07:43:05;;;;;;;9.80;8.80;;;16.30;63.70;;;;;;5032417;28;20460;-59
2022/06/01 07:45:13;;;;;;;8.73;8.03;;;16.50;65.10;;;;;;5027831;28;20536;-59
2022/06/01 07:47:40;;;;;;;7.50;6.90;;;16.80;64.00;;;;;;5032670;28;20843;-59
2022/06/01 07:50:09;;;;;;;7.53;6.83;;;17.10;63.00;;;;;;5031529;28;20500;-58
2022/06/01 07:52:37;;;;;;;8.20;7.40;;;17.30;62.20;;;;;;5032314;28;20470;-60
2022/06/01 07:55:05;;;;;;;8.00;7.20;;;17.50;61.00;;;;;;5032472;28;20456;-60
2022/06/01 07:57:33;;;;;;;7.60;6.90;;;17.50;59.70;;;;;;5023088;28;20482;-59
2022/06/01 08:00:00;;;;;;;4.67;4.03;;;17.70;59.80;;;;;;5012686;28;20528;-61
2022/06/01 08:02:27;;;;;;;5.13;4.73;;;17.80;58.40;;;;;;5012555;28;20478;-61
2022/06/01 08:04:54;;;;;;;4.50;4.00;;;17.90;56.00;;;;;;5013737;28;20450;-59
2022/06/01 08:07:23;;;;;;;5.23;4.77;;;17.80;54.60;;;;;;5031666;28;20449;-57
2022/06/01 08:09:50;;;;;;;5.50;5.00;;;17.80;54.50;;;;;;5032569;28;20512;-59
2022/06/01 08:14:58;;;;;;;6.17;5.70;;;17.90;54.80;;;;;;5019841;28;20433;-59
2022/06/01 08:17:25;;;;;;;8.10;7.30;;;17.90;54.80;;;;;;5032534;28;20460;-59
2022/06/01 08:19:52;;;;;;;6.63;6.07;;;17.90;55.10;;;;;;5032426;28;20441;-58
2022/06/01 08:22:19;;;;;;;8.20;7.37;;;17.70;55.40;;;;;;5031830;28;21000;-58
2022/06/01 08:24:48;;;;;;;6.70;6.10;;;17.60;55.90;;;;;;5031301;28;20540;-58
2022/06/01 08:27:15;;;;;;;7.77;7.07;;;17.50;56.50;;;;;;5032133;28;20449;-58
2022/06/01 08:29:42;;;;;;;6.70;6.03;;;17.40;56.70;;;;;;5032138;28;20473;-59
2022/06/01 08:32:10;;;;;;;6.70;5.60;;;17.40;56.80;;;;;;5032205;28;20476;-60
2022/06/01 08:34:38;;;;;;;6.30;5.23;;;17.50;56.70;;;;;;5014856;28;20457;-58
2022/06/01 08:37:06;;;;;;;5.90;5.40;;;17.70;56.40;;;;;;5012114;28;20454;-58
2022/06/01 08:39:33;;;;;;;6.00;5.50;;;17.80;55.60;;;;;;5012062;28;20449;-60
2022/06/01 08:42:03;;;;;;;5.47;5.03;;;17.80;54.90;;;;;;5011340;28;20482;-59
2022/06/01 08:44:32;;;;;;;6.40;5.90;;;17.90;54.20;;;;;;5011169;28;20457;-58
2022/06/01 08:47:06;;;;;;;6.15;5.65;;;17.90;53.60;;;;;;5011518;28;20438;-57
2022/06/01 08:49:35;;;;;;;6.13;5.63;;;17.80;53.80;;;;;;5012541;28;20631;-59
2022/06/01 08:52:03;;;;;;;5.73;5.33;;;17.70;53.70;;;;;;5011457;28;20477;-59
2022/06/01 08:54:30;;;;;;;6.70;5.87;;;17.50;54.10;;;;;;5012177;28;20472;-58
2022/06/01 08:57:04;;;;;;;6.47;5.97;;;17.30;54.70;;;;;;5015344;28;20486;-58
2022/06/01 08:59:40;;;;;;;6.00;5.27;;;17.50;54.90;;;;;;5014951;28;20434;-58
2022/06/01 09:02:23;;;;;;;8.30;7.07;;;17.90;54.60;;;;;;5015347;28;20485;-59
2022/06/01 09:04:55;;;;;;;6.77;6.17;;;18.40;53.20;;;;;;5015968;28;20426;-59
2022/06/01 09:07:30;;;;;;;5.57;5.17;;;18.60;52.50;;;;;;5014961;28;20438;-59
2022/06/01 09:10:22;;;;;;;6.37;5.70;;;18.80;51.60;;;;;;5015636;28;20473;-59
2022/06/01 09:12:57;;;;;;;5.60;5.10;;;18.80;51.30;;;;;;5014792;28;20474;-59
2022/06/01 09:15:27;;;;;;;6.77;6.10;;;19.00;50.90;;;;;;5015481;28;20422;-61
2022/06/01 09:17:55;;;;;;;5.50;5.00;;;19.00;50.20;;;;;;5015567;28;20445;-59
2022/06/01 09:23:16;;;;;;;6.07;5.57;;;18.70;50.40;;;;;;4977839;28;20443;-58
2022/06/01 09:25:50;;;;;;;9.50;6.20;;;18.50;50.60;;;;;;5015568;28;20513;-58
2022/06/01 09:28:21;;;;;;;6.47;5.97;;;18.30;51.20;;;;;;5014493;28;20447;-58
2022/06/01 09:30:57;;;;;;;6.57;5.97;;;18.10;51.80;;;;;;5015387;28;20489;-58
2022/06/01 09:33:27;;;;;;;7.57;6.87;;;18.10;52.30;;;;;;5014921;28;20480;-58
2022/06/01 09:36:05;;;;;;;6.40;5.80;;;18.10;52.40;;;;;;5013773;28;20427;-58
2022/06/01 09:38:37;;;;;;;7.23;6.53;;;18.10;52.70;;;;;;5014894;28;20433;-59
2022/06/01 09:41:10;;;;;;;7.07;6.47;;;18.00;52.30;;;;;;5014713;28;20984;-59
2022/06/01 09:43:41;;;;;;;7.23;6.53;;;17.90;52.40;;;;;;5014860;28;20449;-59
2022/06/01 09:46:09;;;;;;;7.20;6.60;;;18.10;52.70;;;;;;5014395;28;20914;-59
2022/06/01 09:48:38;;;;;;;7.17;6.57;;;18.50;52.10;;;;;;5014577;28;20501;-59
2022/06/01 09:51:20;;;;;;;6.37;5.77;;;18.70;51.80;;;;;;5014986;28;20563;-59
2022/06/01 09:53:51;;;;;;;6.50;5.30;;;19.00;51.40;;;;;;5014296;28;20445;-59
2022/06/01 09:56:29;;;;;;;6.40;4.53;;;19.10;51.10;;;;;;5014113;28;20438;-60
2022/06/01 10:07:24;;;;;;;3.83;3.53;;;18.30;48.80;;;;;;5014341;28;20803;-58
2022/06/01 10:09:53;;;;;;;4.63;4.20;;;18.30;48.70;;;;;;5014829;28;20493;-59
2022/06/01 10:12:29;;;;;;;5.77;4.90;;;18.40;48.70;;;;;;5026353;28;20961;-59
2022/06/01 10:14:59;;;;;;;5.33;4.93;;;18.50;49.00;;;;;;5033854;28;20445;-58
2022/06/01 10:17:33;;;;;;;4.53;4.13;;;18.60;49.20;;;;;;5033271;28;20481;-58
2022/06/01 10:20:21;;;;;;;7.67;5.53;;;18.60;49.20;;;;;;5033040;28;20438;-58
2022/06/01 10:23:02;;;;;;;8.23;7.53;;;18.40;49.60;;;;;;5034160;28;20470;-58
2022/06/01 10:25:34;;;;;;;9.43;8.57;;;17.90;52.80;;;;;;5033913;28;20433;-60
2022/06/01 10:28:06;;;;;;;9.90;8.90;;;17.10;57.40;;;;;;5033124;28;20442;-58
2022/06/01 10:30:38;;;;;;;11.80;10.80;;;16.30;62.60;;;;;;5033659;28;20473;-59
2022/06/01 10:33:11;;;;;;;12.00;10.90;;;15.70;70.40;;;;;;5034064;28;20445;-58
2022/06/01 10:35:41;;;;;;;10.83;9.70;;;15.50;79.50;;;;;;5018697;28;20458;-58
2022/06/01 10:38:15;;;;;;;10.30;9.30;;;15.70;83.80;;;;;;5014151;28;20453;-58
2022/06/01 10:40:48;;;;;;;7.17;6.57;;;15.90;83.80;;;;;;5014313;28;20516;-58
2022/06/01 10:43:29;;;;;;;9.20;8.43;;;16.10;82.50;;;;;;5012764;28;20443;-59
2022/06/01 10:46:04;;;;;;;7.67;6.97;;;16.20;78.50;;;;;;5014184;28;20929;-59
2022/06/01 10:48:38;;;;;;;7.93;7.23;;;16.20;74.20;;;;;;5013683;28;20437;-59
2022/06/01 10:51:11;;;;;;;7.30;6.70;;;16.20;71.50;;;;;;5012858;28;20569;-60
2022/06/01 10:53:52;;;;;;;7.50;6.80;;;16.30;68.50;;;;;;5014037;28;20460;-58
2022/06/01 10:56:22;;;;;;;7.00;6.40;;;16.40;65.50;;;;;;5013399;28;20462;-60
2022/06/01 10:58:50;;;;;;;7.43;6.63;;;16.40;63.30;;;;;;5013312;28;20446;-58
2022/06/01 11:01:30;;;;;;;7.73;7.07;;;16.60;62.00;;;;;;5012751;28;20485;-59
2022/06/01 11:04:25;;;;;;;8.90;7.40;;;16.90;60.50;;;;;;5012987;28;20453;-58
2022/06/01 11:07:18;;;;;;;6.67;5.73;;;17.30;59.50;;;;;;5013311;28;20790;-58
2022/06/01 11:09:55;;;;;;;7.30;6.70;;;17.80;57.70;;;;;;5013602;28;20521;-60
2022/06/01 11:12:34;;;;;;;6.43;5.83;;;17.90;56.30;;;;;;5012829;28;20470;-58
2022/06/01 11:15:12;;;;;;;7.33;6.60;;;17.80;56.30;;;;;;5013147;28;20909;-59
2022/06/01 11:17:46;;;;;;;7.43;6.83;;;17.50;56.80;;;;;;5012433;28;20430;-59
2022/06/01 11:20:41;;;;;;;8.00;7.30;;;17.40;58.30;;;;;;5032400;28;20469;-57
2022/06/01 11:23:19;;;;;;;6.83;6.23;;;17.60;59.90;;;;;;5032984;28;20504;-59
2022/06/01 11:25:59;;;;;;;7.20;6.50;;;18.10;58.80;;;;;;5033110;28;20436;-59
2022/06/01 11:28:45;;;;;;;8.00;7.23;;;18.40;57.00;;;;;;5031593;28;20453;-56
2022/06/01 11:31:19;;;;;;;8.10;7.30;;;18.60;55.90;;;;;;5032614;28;20508;-60
2022/06/01 11:33:54;;;;;;;8.40;7.60;;;18.80;56.70;;;;;;5032462;28;20515;-60
2022/06/01 11:36:31;;;;;;;10.00;6.87;;;19.00;57.90;;;;;;5032577;28;20429;-58
2022/06/01 11:39:06;;;;;;;6.93;6.27;;;19.20;58.40;;;;;;5032743;28;20421;-58
2022/06/01 11:41:37;;;;;;;6.93;6.23;;;19.30;57.00;;;;;;5032663;28;20460;-58
2022/06/01 11:44:08;;;;;;;7.10;6.50;;;19.10;56.10;;;;;;5031361;28;20452;-58
2022/06/01 11:46:42;;;;;;;7.40;6.80;;;18.70;55.90;;;;;;5031386;28;20446;-59
2022/06/01 11:49:25;;;;;;;8.87;8.17;;;18.40;57.00;;;;;;5031991;28;20448;-58
2022/06/01 11:51:52;;;;;;;9.60;8.60;;;18.00;59.00;;;;;;5032141;28;20976;-58
2022/06/01 11:54:32;;;;;;;8.30;7.57;;;17.40;62.30;;;;;;5031377;28;20823;-58
2022/06/01 11:57:02;;;;;;;10.43;9.43;;;16.80;67.70;;;;;;5032367;28;20921;-58
2022/06/01 11:59:45;;;;;;;10.80;9.80;;;16.30;72.40;;;;;;5031489;28;20446;-58
2022/06/01 12:02:40;;;;;;;10.20;9.10;;;16.10;79.30;;;;;;5090906;22;20530;-58
2022/06/01 12:05:12;;;;;;;10.57;9.00;;;16.30;84.80;;;;;;5053130;28;20431;-59
2022/06/01 12:07:43;;;;;;;9.87;9.00;;;16.70;83.30;;;;;;5052281;28;20464;-59
2022/06/01 12:10:24;;;;;;;10.67;9.40;;;17.00;82.10;;;;;;5052433;28;20999;-60
2022/06/01 12:13:06;;;;;;;10.73;9.83;;;17.00;81.50;;;;;;5052957;28;20475;-59
2022/06/01 12:15:42;;;;;;;11.20;10.20;;;17.00;81.60;;;;;;5052095;28;20463;-59
2022/06/01 12:18:29;;;;;;;12.00;10.50;;;17.00;80.50;;;;;;5052406;28;20428;-59
2022/06/01 12:21:19;;;;;;;11.47;9.53;;;16.80;79.30;;;;;;5052151;28;20487;-60
2022/06/01 12:30:11;;;;;;;7.13;6.50;;;16.70;76.10;;;;;;5052774;28;20466;-59
2022/06/01 12:33:12;;;;;;;6.87;6.17;;;16.80;74.50;;;;;;5055701;28;21002;-58
2022/06/01 12:35:57;;;;;;;5.70;5.20;;;17.40;72.10;;;;;;4994796;28;20418;-59
2022/06/01 12:38:33;;;;;;;4.60;4.27;;;18.00;68.40;;;;;;4992113;28;20462;-62
2022/06/01 12:41:09;;;;;;;4.03;3.63;;;18.50;65.40;;;;;;5034663;28;20489;-60
2022/06/01 12:43:38;;;;;;;4.03;3.10;;;18.70;62.90;;;;;;5055442;28;20463;-61
2022/06/01 12:46:21;;;;;;;4.00;3.70;;;18.70;61.90;;;;;;5055873;28;20784;-60
2022/06/01 12:48:48;;;;;;;4.63;4.23;;;18.80;61.10;;;;;;5056512;28;20429;-59
2022/06/01 12:51:16;;;;;;;4.30;3.90;;;18.90;60.30;;;;;;5055423;28;20895;-60
2022/06/01 12:53:47;;;;;;;4.23;3.83;;;19.00;59.40;;;;;;5056517;28;20448;-61
2022/06/01 12:56:16;;;;;;;4.40;4.00;;;19.20;58.70;;;;;;5056016;28;20437;-61
2022/06/01 12:58:45;;;;;;;4.13;3.73;;;19.40;58.50;;;;;;5054623;28;20562;-60
2022/06/01 13:01:13;;;;;;;4.40;4.00;;;19.60;56.90;;;;;;5055697;28;20443;-60
2022/06/01 13:03:45;;;;;;;4.10;3.77;;;19.60;56.10;;;;;;5040799;28;20489;-61
2022/06/01 13:06:15;;;;;;;4.37;3.93;;;19.50;55.70;;;;;;5020024;28;20454;-60
2022/06/01 13:08:42;;;;;;;4.50;4.20;;;19.60;55.40;;;;;;5016486;28;20957;-61
2022/06/01 13:11:18;;;;;;;5.03;4.30;;;19.80;54.80;;;;;;5016351;28;21108;-62
2022/06/01 13:13:46;;;;;;;4.30;3.87;;;20.00;54.00;;;;;;5016692;28;20508;-61
2022/06/01 13:16:14;;;;;;;4.90;4.30;;;20.30;52.90;;;;;;5020861;28;20464;-61
2022/06/01 13:18:44;;;;;;;4.30;4.00;;;20.50;51.50;;;;;;5036308;28;20456;-61
2022/06/01 13:21:25;;;;;;;3.90;3.60;;;20.40;50.60;;;;;;5036066;28;20434;-62
2022/06/01 13:23:55;;;;;;;3.90;3.50;;;20.40;50.10;;;;;;5036667;28;20476;-61
2022/06/01 13:26:31;;;;;;;3.87;3.57;;;20.50;49.90;;;;;;5036383;28;20444;-62
2022/06/01 13:29:09;;;;;;;4.67;3.20;;;20.50;48.90;;;;;;5036389;28;20430;-62
2022/06/01 13:31:38;;;;;;;4.03;3.30;;;20.40;47.40;;;;;;5036744;28;20496;-61
2022/06/01 13:34:07;;;;;;;3.00;2.70;;;19.90;46.70;;;;;;5036649;28;20453;-61
2022/06/01 13:36:39;;;;;;;2.90;2.60;;;19.40;46.30;;;;;;5036135;28;20971;-61
2022/06/01 13:39:09;;;;;;;3.60;2.50;;;19.00;46.90;;;;;;5042324;28;20436;-61